createdAt,value
2022-10-18T05:09:29.067Z,17.87
2022-10-18T05:11:56.836Z,17.89
2022-10-18T05:14:24.931Z,18.14
2022-10-18T05:16:53.010Z,18.28
2022-10-18T05:19:21.086Z,18.36
2022-10-18T05:21:49.417Z,18.44
2022-10-18T05:24:17.475Z,18.39
2022-10-18T05:26:49.990Z,18.36
2022-10-18T05:29:17.828Z,18.43
2022-10-18T05:31:45.873Z,18.46
2022-10-18T05:34:13.705Z,18.38
2022-10-18T05:36:41.602Z,18.18
2022-10-18T05:39:09.583Z,18.16
2022-10-18T05:41:37.767Z,17.89
2022-10-18T05:44:07.456Z,18.00
2022-10-18T05:46:35.482Z,18.16
2022-10-18T05:49:03.710Z,18.05
2022-10-18T05:51:31.825Z,18.00
2022-10-18T05:54:00.807Z,18.12
2022-10-18T05:56:28.877Z,18.16
2022-10-18T05:58:56.951Z,18.21
2022-10-18T06:01:26.545Z,18.11
2022-10-18T06:03:54.720Z,18.11
2022-10-18T06:06:22.739Z,18.23
2022-10-18T06:08:51.332Z,18.38
2022-10-18T06:11:21.182Z,18.01
2022-10-18T06:13:51.454Z,17.22
2022-10-18T06:16:21.569Z,16.92
2022-10-18T06:18:52.583Z,17.07
2022-10-18T06:21:21.769Z,17.37
2022-10-18T06:23:50.511Z,17.75
2022-10-18T06:26:18.662Z,18.18
2022-10-18T06:28:46.934Z,18.47
2022-10-18T06:31:15.341Z,18.63
2022-10-18T06:33:43.559Z,18.80
2022-10-18T06:36:15.200Z,18.05
2022-10-18T06:38:43.566Z,17.42
2022-10-18T06:41:12.027Z,17.37
2022-10-18T06:43:40.229Z,17.41
2022-10-18T06:46:09.334Z,17.39
2022-10-18T06:48:37.884Z,16.89
2022-10-18T06:51:08.046Z,16.65
2022-10-18T06:53:44.121Z,16.58
2022-10-18T06:56:16.785Z,16.74
2022-10-18T06:58:44.815Z,17.08
2022-10-18T07:01:15.806Z,17.30
2022-10-18T07:03:44.488Z,17.08
2022-10-18T07:06:14.665Z,17.21
2022-10-18T07:08:44.819Z,17.44
2022-10-18T07:11:17.005Z,17.89
2022-10-18T07:13:45.082Z,18.18
2022-10-18T07:16:17.417Z,18.44
2022-10-18T07:18:48.301Z,18.32
2022-10-18T07:21:18.498Z,18.37
2022-10-18T07:23:48.262Z,18.03
2022-10-18T07:26:18.398Z,18.04
2022-10-18T07:28:48.080Z,17.90
2022-10-18T07:31:16.507Z,17.86
2022-10-18T07:33:44.591Z,17.80
2022-10-18T07:36:14.577Z,18.15
2022-10-18T07:38:44.758Z,18.50
2022-10-18T07:41:15.065Z,19.09
2022-10-18T07:43:44.471Z,19.22
2022-10-18T07:46:13.346Z,19.35
2022-10-18T07:48:41.550Z,19.44
2022-10-18T07:51:10.264Z,19.80
2022-10-18T07:53:39.320Z,19.83
2022-10-18T07:56:09.765Z,19.64
2022-10-18T07:58:39.254Z,19.64
2022-10-18T08:01:09.414Z,19.40
2022-10-18T08:03:38.606Z,19.49
2022-10-18T08:06:09.274Z,19.53
2022-10-18T08:08:38.383Z,19.45
2022-10-18T08:11:08.968Z,19.90
2022-10-18T08:13:36.981Z,19.79
2022-10-18T08:16:08.150Z,19.26
2022-10-18T08:18:37.035Z,20.09
2022-10-18T08:21:07.022Z,20.70
2022-10-18T08:23:35.448Z,21.14
2022-10-18T08:26:06.906Z,21.54
2022-10-18T08:28:36.793Z,21.82
2022-10-18T08:31:08.486Z,22.46
2022-10-18T08:33:36.967Z,22.90
2022-10-18T08:36:07.073Z,22.79
2022-10-18T08:38:36.000Z,23.19
2022-10-18T08:41:24.279Z,22.43
2022-10-18T08:44:01.114Z,21.81
2022-10-18T08:46:33.773Z,20.64
2022-10-18T08:49:03.758Z,20.32
2022-10-18T08:51:38.983Z,20.38
2022-10-18T08:54:12.079Z,21.17
2022-10-18T08:56:42.687Z,20.54
2022-10-18T08:59:12.416Z,21.51
2022-10-18T09:04:36.626Z,20.77
2022-10-18T09:07:29.406Z,19.79
2022-10-18T09:10:05.079Z,19.08
2022-10-18T09:12:52.826Z,19.47
2022-10-18T09:15:28.673Z,19.26
2022-10-18T09:18:12.218Z,19.21
2022-10-18T09:20:51.664Z,19.31
2022-10-18T09:23:23.048Z,19.31
2022-10-18T09:25:57.078Z,20.01
2022-10-18T09:28:37.273Z,20.35
2022-10-18T09:31:16.416Z,19.18
2022-10-18T09:33:53.474Z,19.19
2022-10-18T09:36:24.466Z,19.27
2022-10-18T09:38:57.200Z,19.06
2022-10-18T09:41:33.089Z,18.96
2022-10-18T09:44:06.778Z,18.95
2022-10-18T09:46:40.039Z,19.10
2022-10-18T09:49:16.505Z,19.11
2022-10-18T09:51:46.141Z,19.46
2022-10-18T09:54:21.997Z,19.30
2022-10-18T09:56:52.074Z,19.06
2022-10-18T09:59:35.590Z,19.07
2022-10-18T10:02:04.260Z,19.07
2022-10-18T10:04:33.757Z,18.98
2022-10-18T10:07:03.358Z,19.61
2022-10-18T10:09:37.252Z,20.45
2022-10-18T10:12:05.623Z,20.99
2022-10-18T10:14:44.702Z,23.26
2022-10-18T10:17:24.595Z,23.94
2022-10-18T10:20:02.203Z,25.95
2022-10-18T10:22:37.151Z,25.31
2022-10-18T10:25:06.710Z,24.83
2022-10-18T10:27:43.374Z,24.96
2022-10-18T10:30:25.822Z,25.18
2022-10-18T10:32:55.816Z,24.58
2022-10-18T10:35:53.420Z,22.31
2022-10-18T10:38:27.023Z,22.79
2022-10-18T10:40:55.163Z,23.37
2022-10-18T10:43:42.625Z,22.06
2022-10-18T10:46:13.017Z,21.32
2022-10-18T10:48:48.398Z,21.18
2022-10-18T10:51:29.058Z,21.45
2022-10-18T10:54:02.729Z,21.17
2022-10-18T10:56:32.733Z,22.66
2022-10-18T10:59:09.508Z,21.41
2022-10-18T11:01:37.424Z,21.13
2022-10-18T11:04:25.473Z,20.29
2022-10-18T11:07:01.852Z,19.90
2022-10-18T11:09:51.273Z,19.79
2022-10-18T11:12:27.972Z,19.87
2022-10-18T11:15:05.682Z,19.63
2022-10-18T11:17:40.522Z,19.43
2022-10-18T11:20:23.066Z,19.27
2022-10-18T11:22:59.953Z,19.17
2022-10-18T11:25:40.226Z,19.22
2022-10-18T11:28:17.333Z,19.38
2022-10-18T11:30:55.451Z,20.23
2022-10-18T11:33:56.212Z,21.42
2022-10-18T11:36:27.812Z,21.31
2022-10-18T11:39:01.966Z,21.56
2022-10-18T11:41:34.000Z,22.24
2022-10-18T11:44:04.146Z,23.08
2022-10-18T11:46:48.236Z,21.58
2022-10-18T11:49:40.484Z,23.76
2022-10-18T11:52:14.774Z,25.04
2022-10-18T11:54:59.488Z,24.48
2022-10-18T11:57:41.878Z,23.24
2022-10-18T12:00:20.362Z,22.78
2022-10-18T12:03:00.609Z,23.32
2022-10-18T12:05:30.656Z,22.79
2022-10-18T12:08:03.836Z,22.33
2022-10-18T12:10:52.830Z,23.04
2022-10-18T12:13:28.723Z,23.36
2022-10-18T12:15:57.026Z,23.08
2022-10-18T12:18:26.797Z,23.69
2022-10-18T12:20:56.893Z,24.44
2022-10-18T12:23:37.620Z,24.30
2022-10-18T12:26:08.704Z,24.92
2022-10-18T12:28:48.326Z,25.82
2022-10-18T12:31:23.168Z,26.52
2022-10-18T12:33:55.603Z,28.09
2022-10-18T12:36:47.013Z,29.91
2022-10-18T12:39:32.279Z,30.08
2022-10-18T12:42:19.811Z,29.07
2022-10-18T12:44:48.618Z,24.44
2022-10-18T12:47:27.070Z,25.62
2022-10-18T12:50:00.648Z,26.82
2022-10-18T12:52:33.678Z,24.72
2022-10-18T12:55:05.403Z,24.31
2022-10-18T12:58:06.452Z,23.08
2022-10-18T13:00:55.610Z,22.89
2022-10-18T13:03:53.035Z,22.98
2022-10-18T13:06:21.998Z,22.95
2022-10-18T13:09:10.191Z,23.43
2022-10-18T13:11:37.970Z,22.63
2022-10-18T13:14:44.218Z,23.52
2022-10-18T13:17:32.875Z,27.94
2022-10-18T13:20:26.778Z,27.18
2022-10-18T13:23:05.727Z,25.40
2022-10-18T13:25:46.283Z,27.68
2022-10-18T13:28:26.246Z,25.44
2022-10-18T13:31:03.204Z,23.20
2022-10-18T13:33:34.664Z,23.66
2022-10-18T13:36:06.150Z,23.13
2022-10-18T13:38:39.992Z,22.66
2022-10-18T13:41:09.882Z,23.13
2022-10-18T13:44:12.336Z,23.17
2022-10-18T13:47:19.722Z,22.56
2022-10-18T13:50:04.233Z,22.10
2022-10-18T13:52:50.126Z,21.90
2022-10-18T13:55:39.895Z,21.45
2022-10-18T13:58:18.499Z,21.85
2022-10-18T14:01:08.116Z,22.28
2022-10-18T14:03:57.639Z,22.39
2022-10-18T14:06:30.005Z,22.47
2022-10-18T14:09:09.618Z,22.20
2022-10-18T14:11:51.243Z,21.80
2022-10-18T14:14:26.520Z,21.73
2022-10-18T14:17:04.820Z,21.73
2022-10-18T14:19:37.458Z,22.01
2022-10-18T14:22:14.894Z,22.07
2022-10-18T14:24:46.499Z,22.36
2022-10-18T14:27:18.684Z,22.57
2022-10-18T14:29:46.978Z,22.86
2022-10-18T14:32:30.775Z,22.83
2022-10-18T14:35:27.242Z,22.83
2022-10-18T14:37:50.351Z,22.46
2022-10-18T14:40:34.979Z,22.19
2022-10-18T14:43:04.965Z,21.78
2022-10-18T14:45:32.836Z,21.53
2022-10-18T14:48:08.869Z,21.28
2022-10-18T14:50:36.707Z,20.55
2022-10-18T14:53:14.461Z,20.19
2022-10-18T14:55:44.103Z,20.14
2022-10-18T14:58:16.627Z,20.57
2022-10-18T15:00:47.731Z,20.70
2022-10-18T15:03:18.897Z,21.13
2022-10-18T15:05:54.816Z,21.60
2022-10-18T15:08:25.761Z,21.81
2022-10-18T15:10:54.866Z,21.67
2022-10-18T15:15:51.222Z,22.09
2022-10-18T15:18:22.729Z,22.20
2022-10-18T15:21:21.302Z,22.30
2022-10-18T15:23:51.451Z,22.38
2022-10-18T15:26:23.732Z,22.07
2022-10-18T15:28:54.013Z,21.65
2022-10-18T15:31:26.473Z,21.50
2022-10-18T15:33:56.136Z,21.71
2022-10-18T15:36:29.832Z,21.78
2022-10-18T15:39:15.282Z,21.84
2022-10-18T15:41:48.883Z,21.75
2022-10-18T15:44:25.364Z,21.68
2022-10-18T15:46:55.739Z,21.84
2022-10-18T15:49:54.602Z,21.84
2022-10-18T15:52:42.460Z,21.94
2022-10-18T15:55:50.008Z,21.83
2022-10-18T15:58:26.632Z,21.73
2022-10-18T16:00:57.466Z,21.69
2022-10-18T16:03:25.814Z,21.69
2022-10-18T16:06:03.908Z,21.74
2022-10-18T16:08:37.233Z,21.72
2022-10-18T16:11:07.252Z,21.67
2022-10-18T16:13:35.302Z,21.65
2022-10-18T16:16:03.403Z,21.66
2022-10-18T16:18:31.317Z,21.67
2022-10-18T16:20:59.193Z,21.61
2022-10-18T16:23:28.595Z,21.55
2022-10-18T16:25:56.831Z,21.43
2022-10-18T16:28:27.088Z,21.27
2022-10-18T16:30:57.442Z,21.05
2022-10-18T16:33:25.619Z,20.86
2022-10-18T16:35:54.198Z,20.70
2022-10-18T16:38:32.601Z,20.53
2022-10-18T16:41:04.081Z,20.37
2022-10-18T16:43:34.611Z,20.11
2022-10-18T16:46:03.805Z,19.96
2022-10-18T16:48:32.062Z,19.89
2022-10-18T16:51:00.429Z,19.85
2022-10-18T16:53:28.808Z,19.73
2022-10-18T16:56:00.731Z,19.66
2022-10-18T16:58:30.021Z,19.59
2022-10-18T17:01:01.826Z,19.46
2022-10-18T17:03:31.906Z,19.37
2022-10-18T17:05:59.835Z,19.32
2022-10-18T17:08:29.186Z,19.32
2022-10-18T17:10:58.634Z,19.43
2022-10-18T17:13:27.515Z,19.54
2022-10-18T17:40:23.986Z,20.16
2022-10-18T19:22:30.508Z,16.72
2022-10-18T19:24:58.469Z,16.93
2022-10-18T19:27:26.378Z,17.07
2022-10-18T19:29:54.613Z,16.90
2022-10-18T19:32:22.675Z,16.87
2022-10-18T19:34:51.025Z,16.61
2022-10-18T19:37:19.906Z,16.59
2022-10-18T19:39:52.596Z,16.60
2022-10-18T19:42:26.071Z,16.66
2022-10-18T19:44:55.870Z,16.97
2022-10-18T19:47:24.389Z,17.15
2022-10-18T19:55:38.871Z,16.04
2022-10-18T19:58:07.649Z,16.04
2022-10-18T20:00:36.320Z,16.19
2022-10-18T20:03:04.899Z,16.38
2022-10-18T20:05:32.941Z,16.38
2022-10-18T20:08:03.875Z,16.28
2022-10-18T20:10:31.982Z,16.25
2022-10-18T20:13:05.176Z,16.24
2022-10-18T20:15:35.369Z,16.21
2022-10-18T20:18:03.495Z,16.22
2022-10-18T20:20:31.403Z,16.13
2022-10-18T20:22:59.310Z,16.13
2022-10-18T20:25:27.266Z,16.12
2022-10-18T20:27:55.293Z,16.13
2022-10-18T20:30:24.705Z,16.04
2022-10-18T20:32:52.860Z,15.32
2022-10-18T20:35:20.937Z,15.20
2022-10-18T20:37:49.042Z,15.29
2022-10-18T20:40:18.235Z,15.66
2022-10-18T20:42:46.213Z,15.87
2022-10-18T20:45:14.045Z,15.69
2022-10-18T20:47:43.367Z,15.34
2022-10-18T20:50:11.360Z,15.18
2022-10-18T20:52:39.228Z,15.11
2022-10-18T20:55:07.513Z,15.19
2022-10-18T20:57:36.660Z,15.46
2022-10-18T21:00:07.579Z,15.56
2022-10-18T21:05:50.539Z,15.84
2022-10-18T21:08:18.419Z,15.75
2022-10-18T21:10:46.344Z,15.80
2022-10-18T21:13:14.276Z,15.76
2022-10-18T21:15:43.769Z,15.69
2022-10-18T21:18:11.908Z,15.61
2022-10-18T21:20:42.010Z,15.58
2022-10-18T21:23:11.665Z,15.55
2022-10-18T21:25:45.341Z,15.50
2022-10-18T21:28:13.254Z,15.44
2022-10-18T21:30:41.091Z,15.51
2022-10-18T21:33:09.135Z,15.61
2022-10-18T21:35:37.370Z,15.54
2022-10-18T21:38:05.982Z,15.21
2022-10-18T21:40:39.703Z,15.21
2022-10-18T21:43:08.135Z,15.30
2022-10-18T21:45:36.035Z,15.29
2022-10-18T21:48:04.084Z,15.32
2022-10-18T21:50:32.070Z,15.45
2022-10-18T21:52:59.960Z,15.51
2022-10-18T21:55:27.770Z,15.50
2022-10-18T21:57:57.071Z,15.53
2022-10-18T22:00:25.069Z,15.53
2022-10-18T22:03:07.132Z,15.54
2022-10-18T22:05:35.110Z,15.47
2022-10-18T22:08:03.089Z,15.47
2022-10-18T22:10:31.270Z,15.49
2022-10-18T22:13:01.448Z,15.39
2022-10-18T22:15:29.297Z,15.28
2022-10-18T22:17:57.323Z,15.27
2022-10-18T22:20:25.063Z,15.25
2022-10-18T22:22:55.747Z,15.14
2022-10-18T22:25:23.653Z,15.02
2022-10-18T22:27:51.629Z,15.04
2022-10-18T22:30:21.085Z,14.78
2022-10-18T22:32:49.308Z,14.68
2022-10-18T22:35:17.247Z,14.64
2022-10-18T22:37:45.358Z,14.60
2022-10-18T22:40:13.490Z,14.67
2022-10-18T22:42:41.478Z,14.55
2022-10-18T22:45:10.921Z,14.37
2022-10-18T22:47:40.201Z,14.33
2022-10-18T22:50:08.681Z,14.15
2022-10-18T22:52:36.749Z,14.09
2022-10-18T22:55:05.127Z,14.10
2022-10-18T22:57:33.292Z,14.05
2022-10-18T23:00:01.286Z,13.97
2022-10-18T23:02:29.494Z,13.98
2022-10-18T23:04:58.734Z,13.89
2022-10-18T23:07:26.665Z,13.92
2022-10-18T23:09:54.611Z,13.97
2022-10-18T23:12:22.926Z,13.97
2022-10-18T23:14:51.304Z,14.01
2022-10-18T23:17:19.512Z,13.95
2022-10-18T23:19:47.760Z,13.92
2022-10-18T23:22:21.376Z,13.73
2022-10-18T23:24:49.527Z,13.81
2022-10-18T23:27:17.851Z,13.88
2022-10-18T23:29:46.598Z,13.90
2022-10-18T23:32:14.881Z,13.95
2022-10-18T23:34:43.143Z,13.97
2022-10-18T23:37:11.318Z,14.20
2022-10-18T23:39:41.464Z,14.25
2022-10-18T23:42:11.103Z,14.37
2022-10-18T23:44:39.070Z,14.43
2022-10-18T23:47:07.033Z,14.42
2022-10-18T23:49:35.114Z,14.38
2022-10-18T23:52:03.394Z,14.31
2022-10-18T23:54:31.190Z,14.31
2022-10-18T23:57:00.517Z,14.30
2022-10-18T23:59:28.601Z,14.28
